Time;durP1;ratioP1;P1;durP2;ratioP2;P2;SDS_P1;SDS_P2;PMS_P1;PMS_P2;Temp;Humidity;BMP_temperature;BMP_pressure;BME280_temperature;BME280_humidity;BME280_pressure;Samples;Min_cycle;Max_cycle;Signal;HPM_P1;HPM_P2
2021/10/01 00:00:47;;;;;;;1.30;1.20;;;7.90;99.90;;;;;;4965889;28;20694;-72
2021/10/01 00:03:12;;;;;;;1.25;1.25;;;7.90;99.90;;;;;;4942335;28;20189;-72
2021/10/01 00:05:39;;;;;;;1.83;1.10;;;7.90;99.90;;;;;;4975434;28;20240;-72
2021/10/01 00:08:06;;;;;;;1.08;1.08;;;7.90;99.90;;;;;;4974522;28;20177;-72
2021/10/01 00:10:32;;;;;;;2.47;1.02;;;7.90;99.90;;;;;;4953037;28;20215;-73
2021/10/01 00:12:58;;;;;;;0.95;0.95;;;7.90;99.90;;;;;;4971044;28;20174;-72
2021/10/01 00:15:23;;;;;;;1.00;1.00;;;7.90;99.90;;;;;;4975520;28;20169;-72
2021/10/01 00:17:49;;;;;;;1.23;1.13;;;7.90;99.90;;;;;;4974860;28;20173;-72
2021/10/01 00:20:15;;;;;;;1.57;1.57;;;7.90;99.90;;;;;;4972390;28;20443;-72
2021/10/01 00:22:41;;;;;;;1.60;1.50;;;7.90;99.90;;;;;;4968195;28;20180;-72
2021/10/01 00:25:07;;;;;;;1.40;1.33;;;7.90;99.90;;;;;;4974983;28;20176;-72
2021/10/01 00:27:33;;;;;;;1.50;1.30;;;8.00;99.90;;;;;;4974798;28;20630;-72
2021/10/01 00:29:58;;;;;;;1.20;1.10;;;7.90;99.90;;;;;;4974957;28;20230;-72
2021/10/01 00:32:24;;;;;;;1.40;1.30;;;7.90;99.90;;;;;;4964581;28;20547;-73
2021/10/01 00:34:51;;;;;;;1.37;1.27;;;7.90;99.90;;;;;;4955705;28;20541;-72
2021/10/01 00:37:17;;;;;;;1.63;1.52;;;7.90;99.90;;;;;;4955215;29;20641;-72
2021/10/01 00:39:43;;;;;;;1.45;1.20;;;7.90;99.90;;;;;;4955514;29;20195;-73
2021/10/01 00:42:08;;;;;;;1.60;1.27;;;7.90;99.90;;;;;;4962405;28;20175;-73
2021/10/01 00:44:34;;;;;;;1.27;1.27;;;7.80;99.90;;;;;;4975046;28;20579;-72
2021/10/01 00:47:00;;;;;;;1.03;1.03;;;7.80;99.90;;;;;;4974439;28;20520;-73
2021/10/01 00:49:27;;;;;;;2.00;1.80;;;7.70;99.90;;;;;;4971369;28;20197;-72
2021/10/01 00:51:53;;;;;;;1.30;1.20;;;7.70;99.90;;;;;;4966615;28;20203;-72
2021/10/01 00:54:19;;;;;;;0.77;0.77;;;7.80;99.90;;;;;;4974549;28;20179;-72
2021/10/01 00:56:45;;;;;;;1.15;1.15;;;7.80;99.90;;;;;;4974306;28;20431;-72
2021/10/01 00:59:11;;;;;;;1.00;1.00;;;7.70;99.90;;;;;;4974900;28;20184;-71
2021/10/01 01:01:36;;;;;;;1.17;1.10;;;7.70;99.90;;;;;;4963344;28;20716;-72
2021/10/01 01:04:05;;;;;;;1.57;1.40;;;7.70;99.90;;;;;;4955454;28;20659;-71
2021/10/01 01:06:45;;;;;;;2.17;2.05;;;7.60;99.90;;;;;;4955193;29;20185;-73
2021/10/01 01:09:44;;;;;;;1.02;1.00;;;7.60;99.90;;;;;;4955540;29;20193;-72
2021/10/01 01:12:13;;;;;;;1.65;1.33;;;7.60;99.90;;;;;;4936453;29;20195;-71
2021/10/01 01:15:02;;;;;;;1.42;1.33;;;7.50;99.90;;;;;;4951113;28;20208;-72
2021/10/01 01:17:40;;;;;;;0.95;0.95;;;7.50;99.90;;;;;;4954810;28;20203;-71
2021/10/01 01:20:20;;;;;;;1.10;1.10;;;7.50;99.90;;;;;;4957849;28;20206;-71
2021/10/01 01:22:58;;;;;;;1.60;1.50;;;7.50;99.90;;;;;;4974491;28;20169;-71
2021/10/01 01:26:08;;;;;;;3.72;2.47;;;7.40;99.90;;;;;;4976551;28;20200;-72
2021/10/01 01:28:39;;;;;;;1.50;1.38;;;7.40;99.90;;;;;;4892326;29;20178;-72
2021/10/01 01:31:20;;;;;;;1.55;1.45;;;7.30;99.90;;;;;;4951061;28;20211;-72
2021/10/01 01:33:48;;;;;;;1.42;1.33;;;7.30;99.90;;;;;;4959155;29;20189;-72
2021/10/01 01:36:14;;;;;;;0.60;0.60;;;7.40;99.90;;;;;;4954821;28;20225;-72
2021/10/01 01:38:48;;;;;;;1.33;1.23;;;7.30;99.90;;;;;;4977881;28;20196;-72
2021/10/01 01:41:16;;;;;;;1.15;1.05;;;7.30;99.90;;;;;;4969111;28;20538;-71
2021/10/01 01:43:42;;;;;;;1.67;1.58;;;7.30;99.90;;;;;;4972862;28;20189;-71
2021/10/01 01:46:08;;;;;;;2.65;2.13;;;7.30;99.90;;;;;;4978222;28;20205;-72
2021/10/01 01:48:35;;;;;;;1.45;1.30;;;7.30;99.90;;;;;;4977568;28;20183;-72
2021/10/01 01:51:03;;;;;;;1.55;1.45;;;7.40;99.90;;;;;;4970985;28;20549;-72
2021/10/01 01:53:29;;;;;;;2.75;1.77;;;7.40;99.90;;;;;;4958671;29;20165;-72
2021/10/01 01:55:56;;;;;;;1.83;1.73;;;7.40;99.90;;;;;;4958871;29;20182;-72
2021/10/01 01:58:22;;;;;;;2.17;1.98;;;7.40;99.90;;;;;;4959095;28;20255;-72
2021/10/01 02:00:48;;;;;;;1.77;1.67;;;7.40;99.90;;;;;;4963117;28;20176;-73
2021/10/01 02:03:16;;;;;;;1.37;1.27;;;7.40;99.90;;;;;;4977782;28;20164;-72
2021/10/01 02:05:46;;;;;;;1.90;1.17;;;7.40;99.90;;;;;;4960365;28;20470;-72
2021/10/01 02:08:14;;;;;;;1.45;1.35;;;7.40;99.90;;;;;;4977480;28;20321;-72
2021/10/01 02:10:40;;;;;;;1.23;1.13;;;7.30;99.90;;;;;;4943956;28;20208;-72
2021/10/01 02:13:08;;;;;;;1.40;1.23;;;7.30;99.90;;;;;;4971517;28;20527;-72
2021/10/01 02:15:36;;;;;;;1.13;1.13;;;7.30;99.90;;;;;;4972217;28;20183;-72
2021/10/01 02:18:05;;;;;;;1.00;1.00;;;7.20;99.90;;;;;;4973293;28;20182;-71
2021/10/01 02:20:33;;;;;;;1.45;1.35;;;7.20;99.90;;;;;;4977565;28;20209;-71
2021/10/01 02:23:00;;;;;;;1.25;1.25;;;7.20;99.90;;;;;;4977690;28;20167;-73
2021/10/01 02:28:16;;;;;;;1.20;1.20;;;7.10;99.90;;;;;;4957874;28;20193;-71
2021/10/01 02:30:43;;;;;;;1.00;1.00;;;7.10;99.90;;;;;;4958005;29;20347;-72
2021/10/01 02:33:12;;;;;;;1.08;1.02;;;7.10;99.90;;;;;;4958005;29;20652;-72
2021/10/01 02:35:38;;;;;;;1.95;1.70;;;7.10;99.90;;;;;;4961160;28;20183;-72
2021/10/01 02:38:04;;;;;;;1.25;1.25;;;7.00;99.90;;;;;;4957447;29;20166;-72
2021/10/01 02:40:31;;;;;;;1.40;1.30;;;7.00;99.90;;;;;;4940400;29;20811;-70
2021/10/01 02:42:57;;;;;;;1.73;1.63;;;7.00;99.90;;;;;;4957743;29;20171;-70
2021/10/01 02:45:23;;;;;;;1.13;1.00;;;7.00;99.90;;;;;;4968152;28;20186;-71
2021/10/01 02:47:49;;;;;;;1.30;1.20;;;7.00;99.90;;;;;;4976630;28;20239;-71
2021/10/01 02:50:20;;;;;;;1.30;1.23;;;7.00;99.90;;;;;;4968387;28;20207;-71
2021/10/01 02:52:49;;;;;;;1.58;1.48;;;7.00;99.90;;;;;;4940481;29;20209;-71
2021/10/01 02:55:20;;;;;;;1.95;1.80;;;7.00;99.90;;;;;;4940360;29;20185;-71
2021/10/01 02:58:12;;;;;;;5.00;2.22;;;7.00;99.90;;;;;;4957295;29;20176;-71
2021/10/01 03:00:38;;;;;;;1.70;1.60;;;7.00;99.90;;;;;;4957507;29;20559;-71
2021/10/01 03:03:09;;;;;;;1.20;1.20;;;6.90;99.90;;;;;;4957302;29;20198;-71
2021/10/01 03:05:37;;;;;;;1.42;1.35;;;6.90;99.90;;;;;;4961997;28;20177;-71
2021/10/01 03:08:04;;;;;;;5.95;2.15;;;6.90;99.90;;;;;;4939709;29;20180;-71
2021/10/01 03:10:31;;;;;;;1.40;1.30;;;6.90;99.90;;;;;;4957305;29;20202;-71
2021/10/01 03:12:58;;;;;;;1.65;1.40;;;6.80;99.90;;;;;;4971000;28;20185;-71
2021/10/01 03:15:25;;;;;;;1.13;1.05;;;6.80;99.90;;;;;;4976711;28;20176;-72
2021/10/01 03:17:51;;;;;;;1.20;1.20;;;6.80;99.90;;;;;;4958750;28;20179;-71
2021/10/01 03:20:17;;;;;;;1.73;1.17;;;6.80;99.90;;;;;;4959848;28;20204;-72
2021/10/01 03:22:43;;;;;;;1.23;1.20;;;6.70;99.90;;;;;;4960798;28;20524;-71
2021/10/01 03:25:11;;;;;;;2.67;1.30;;;6.70;99.90;;;;;;4968848;28;20427;-72
2021/10/01 03:27:37;;;;;;;1.55;1.45;;;6.70;99.90;;;;;;4975975;28;20260;-71
2021/10/01 03:30:07;;;;;;;1.88;1.77;;;6.70;99.90;;;;;;4975907;28;20205;-71
2021/10/01 03:32:33;;;;;;;1.20;1.20;;;6.60;99.90;;;;;;4965782;28;20206;-72
2021/10/01 03:35:02;;;;;;;2.92;1.60;;;6.60;99.90;;;;;;4956853;29;20232;-72
2021/10/01 03:37:32;;;;;;;1.40;1.30;;;6.50;99.90;;;;;;4956477;29;20195;-72
2021/10/01 03:40:00;;;;;;;0.90;0.90;;;6.50;99.90;;;;;;4969537;28;20235;-72
2021/10/01 03:42:26;;;;;;;2.05;1.88;;;6.40;99.90;;;;;;4949509;29;20227;-71
2021/10/01 03:44:52;;;;;;;1.35;1.35;;;6.40;99.90;;;;;;4956515;29;20173;-71
2021/10/01 03:47:17;;;;;;;1.80;1.35;;;6.40;99.90;;;;;;4955812;28;20180;-71
2021/10/01 03:49:43;;;;;;;1.40;1.30;;;6.40;99.90;;;;;;4956365;29;20568;-71
2021/10/01 03:52:11;;;;;;;2.20;1.80;;;6.40;99.90;;;;;;4962545;28;20237;-72
2021/10/01 03:54:38;;;;;;;1.60;1.50;;;6.40;99.90;;;;;;4959231;28;20428;-72
2021/10/01 03:57:04;;;;;;;1.70;1.30;;;6.40;99.90;;;;;;4956236;29;20172;-71
2021/10/01 03:59:30;;;;;;;1.53;1.30;;;6.50;99.90;;;;;;4956274;29;20197;-72
2021/10/01 04:01:55;;;;;;;1.50;1.40;;;6.40;99.90;;;;;;4959645;28;20964;-72
2021/10/01 04:04:21;;;;;;;1.90;1.73;;;6.50;99.90;;;;;;4958266;28;20180;-72
2021/10/01 04:06:47;;;;;;;1.90;1.23;;;6.50;99.90;;;;;;4975173;28;20178;-72
2021/10/01 04:09:12;;;;;;;1.83;1.73;;;6.40;99.90;;;;;;4960098;28;20200;-72
2021/10/01 04:11:39;;;;;;;1.27;1.23;;;6.40;99.90;;;;;;4956751;28;20283;-72
2021/10/01 04:14:06;;;;;;;1.55;1.45;;;6.40;99.90;;;;;;4974946;28;20188;-72
2021/10/01 04:16:32;;;;;;;2.63;2.15;;;6.40;99.90;;;;;;4961928;28;20183;-72
2021/10/01 04:18:58;;;;;;;1.52;1.42;;;6.40;99.90;;;;;;4955863;29;20188;-71
2021/10/01 04:21:24;;;;;;;1.42;1.42;;;6.40;99.90;;;;;;4939668;29;20522;-72
2021/10/01 04:23:49;;;;;;;2.60;1.90;;;6.40;99.90;;;;;;4972950;28;20271;-72
2021/10/01 04:26:17;;;;;;;1.80;1.50;;;6.30;99.90;;;;;;4974556;28;20578;-72
2021/10/01 04:28:43;;;;;;;1.23;1.23;;;6.20;99.90;;;;;;4974532;28;20244;-72
2021/10/01 04:31:09;;;;;;;1.88;1.77;;;6.20;99.90;;;;;;4961894;28;20287;-72
2021/10/01 04:33:36;;;;;;;1.95;1.85;;;6.20;99.90;;;;;;4955713;29;20192;-72
2021/10/01 04:36:02;;;;;;;1.58;1.58;;;6.20;99.90;;;;;;4963449;28;20182;-72
2021/10/01 04:38:28;;;;;;;1.55;1.52;;;6.20;99.90;;;;;;4944332;29;20184;-71
2021/10/01 04:40:54;;;;;;;1.55;1.45;;;6.20;99.90;;;;;;4938559;29;20544;-72
2021/10/01 04:43:20;;;;;;;1.57;1.47;;;6.30;99.90;;;;;;4955641;29;20173;-71
2021/10/01 04:45:45;;;;;;;1.57;1.47;;;6.20;99.90;;;;;;4955992;28;20455;-71
2021/10/01 04:48:11;;;;;;;1.80;1.70;;;6.20;99.90;;;;;;4955274;29;20205;-72
2021/10/01 04:50:37;;;;;;;1.20;1.20;;;6.20;99.90;;;;;;4944314;28;20209;-72
2021/10/01 04:53:04;;;;;;;1.30;1.20;;;6.20;99.90;;;;;;4974219;28;20204;-70
2021/10/01 04:55:34;;;;;;;1.15;1.15;;;6.20;99.90;;;;;;4955545;28;20435;-71
2021/10/01 04:58:01;;;;;;;2.38;1.55;;;6.20;99.90;;;;;;4964106;28;20185;-70
2021/10/01 05:00:27;;;;;;;1.95;1.85;;;6.20;99.90;;;;;;4973703;28;20193;-70
2021/10/01 05:02:53;;;;;;;1.95;1.50;;;6.20;99.90;;;;;;4974825;28;20207;-70
2021/10/01 05:05:19;;;;;;;1.88;1.42;;;6.20;99.90;;;;;;4973555;28;20235;-71
2021/10/01 05:07:46;;;;;;;1.93;1.67;;;6.30;99.90;;;;;;4974284;28;20657;-71
2021/10/01 05:10:12;;;;;;;0.90;0.90;;;6.20;99.90;;;;;;4974561;28;20212;-70
2021/10/01 05:12:41;;;;;;;1.60;1.50;;;6.30;99.90;;;;;;4975033;28;20258;-71
2021/10/01 05:15:08;;;;;;;1.40;1.40;;;6.30;99.90;;;;;;4971593;28;20172;-73
2021/10/01 05:17:35;;;;;;;1.55;1.45;;;6.30;99.90;;;;;;4973901;28;20644;-72
2021/10/01 05:20:03;;;;;;;1.67;1.50;;;6.40;99.90;;;;;;4963779;28;20194;-71
2021/10/01 05:22:34;;;;;;;1.95;1.85;;;6.30;99.90;;;;;;4966348;28;20176;-70
2021/10/01 05:25:06;;;;;;;2.40;2.25;;;6.30;99.90;;;;;;4957002;28;20187;-72
2021/10/01 05:27:33;;;;;;;1.73;1.63;;;6.30;99.90;;;;;;4974495;28;20168;-71
2021/10/01 05:29:59;;;;;;;1.92;1.73;;;6.30;99.90;;;;;;4974225;28;20651;-71
2021/10/01 05:32:25;;;;;;;4.15;1.50;;;6.30;99.90;;;;;;4962720;28;20181;-70
2021/10/01 05:34:51;;;;;;;1.03;1.03;;;6.30;99.90;;;;;;4954992;29;20176;-69
2021/10/01 05:37:18;;;;;;;2.42;2.33;;;6.30;99.90;;;;;;4954580;29;20205;-68
2021/10/01 05:39:43;;;;;;;0.90;0.90;;;6.40;99.90;;;;;;4955021;29;20196;-68
2021/10/01 05:42:09;;;;;;;1.50;1.40;;;6.40;99.90;;;;;;4963526;28;20183;-68
2021/10/01 05:44:35;;;;;;;1.80;1.70;;;6.40;99.90;;;;;;4974146;28;20186;-66
2021/10/01 05:47:03;;;;;;;2.07;1.40;;;6.50;99.90;;;;;;4955955;28;20596;-71
2021/10/01 05:49:38;;;;;;;1.75;1.65;;;6.50;99.90;;;;;;4964512;28;20197;-68
2021/10/01 05:54:41;;;;;;;1.80;1.70;;;6.60;99.90;;;;;;4954826;29;20264;-69
2021/10/01 05:57:12;;;;;;;1.20;1.20;;;6.60;99.90;;;;;;4954614;28;20294;-68
2021/10/01 05:59:39;;;;;;;2.55;2.38;;;6.70;99.90;;;;;;4954643;29;20192;-68
2021/10/01 06:02:10;;;;;;;1.98;1.88;;;6.80;99.90;;;;;;4959300;28;20190;-67
2021/10/01 06:04:35;;;;;;;1.67;1.55;;;6.90;99.90;;;;;;4973720;28;20212;-68
2021/10/01 06:07:01;;;;;;;7.90;2.30;;;7.10;99.90;;;;;;4973504;28;20175;-68
2021/10/01 06:09:27;;;;;;;3.50;2.10;;;7.30;99.90;;;;;;4958954;28;20207;-68
2021/10/01 06:11:52;;;;;;;2.17;2.07;;;7.50;99.90;;;;;;4968161;28;20547;-70
2021/10/01 06:14:23;;;;;;;1.80;1.70;;;7.80;99.90;;;;;;4977591;28;20164;-66
2021/10/01 06:16:50;;;;;;;1.45;1.42;;;8.00;99.90;;;;;;4975060;28;20180;-66
2021/10/01 06:19:17;;;;;;;2.05;1.95;;;8.10;99.90;;;;;;4957432;28;20196;-67
2021/10/01 06:21:43;;;;;;;2.30;1.80;;;8.10;99.90;;;;;;4962984;28;20257;-67
2021/10/01 06:24:09;;;;;;;1.58;1.48;;;8.20;99.90;;;;;;4957966;29;20188;-68
2021/10/01 06:26:35;;;;;;;1.33;1.23;;;8.30;99.90;;;;;;4957680;29;20187;-67
2021/10/01 06:29:00;;;;;;;1.93;1.83;;;8.50;99.90;;;;;;4958029;29;20439;-67
2021/10/01 06:31:26;;;;;;;1.80;1.70;;;8.90;99.90;;;;;;4957928;29;20212;-68
2021/10/01 06:33:52;;;;;;;2.13;1.90;;;9.30;99.90;;;;;;4957841;29;20663;-68
2021/10/01 06:36:20;;;;;;;3.20;1.70;;;9.40;99.90;;;;;;4970974;28;20176;-67
2021/10/01 06:38:47;;;;;;;2.38;1.80;;;9.40;99.90;;;;;;4976956;28;20235;-67
2021/10/01 06:41:13;;;;;;;1.60;1.50;;;9.50;99.90;;;;;;4977150;28;20179;-67
2021/10/01 06:43:40;;;;;;;3.17;2.88;;;9.60;99.90;;;;;;4973162;28;20190;-66
2021/10/01 06:46:13;;;;;;;1.73;1.63;;;9.50;99.90;;;;;;4957604;29;20275;-67
2021/10/01 06:48:57;;;;;;;1.52;1.40;;;9.50;99.90;;;;;;4957363;29;20247;-67
2021/10/01 07:34:33;;;;;;;2.00;1.80;;;16.80;97.10;;;;;;4957232;29;20463;-67
2021/10/01 08:21:24;;;;;;;1.50;1.30;;;26.10;70.30;;;;;;4974599;28;20428;-68
2021/10/01 08:23:50;;;;;;;1.70;1.60;;;26.60;68.90;;;;;;4958277;28;20435;-68
2021/10/01 08:26:16;;;;;;;1.50;1.40;;;27.10;65.00;;;;;;4974955;28;20502;-67
2021/10/01 08:28:42;;;;;;;2.10;1.20;;;27.50;64.30;;;;;;4974719;28;20518;-68
2021/10/01 08:31:07;;;;;;;2.13;1.60;;;28.00;63.00;;;;;;4974839;28;20256;-67
2021/10/01 08:33:33;;;;;;;1.40;1.20;;;28.20;62.20;;;;;;4974977;28;20256;-67
2021/10/01 08:36:00;;;;;;;1.33;1.23;;;28.40;60.90;;;;;;4975049;28;20176;-68
2021/10/01 08:38:25;;;;;;;1.53;1.43;;;28.70;59.70;;;;;;4974326;28;20462;-68
2021/10/01 08:40:51;;;;;;;1.70;1.60;;;29.10;59.30;;;;;;4974731;28;20423;-68
2021/10/01 08:43:17;;;;;;;2.00;1.80;;;29.30;58.10;;;;;;4974776;28;20180;-68
2021/10/01 08:45:44;;;;;;;1.93;1.77;;;29.60;57.90;;;;;;4974180;28;20234;-69
2021/10/01 08:48:10;;;;;;;1.47;1.40;;;29.60;56.70;;;;;;4974025;28;20454;-69
2021/10/01 08:50:36;;;;;;;1.63;1.53;;;29.30;56.80;;;;;;4974452;28;20507;-68
2021/10/01 08:53:05;;;;;;;1.90;1.80;;;29.00;57.50;;;;;;4974717;28;20794;-68
2021/10/01 08:55:31;;;;;;;1.50;1.40;;;28.60;58.10;;;;;;4973228;28;20176;-68
2021/10/01 08:57:57;;;;;;;1.60;1.50;;;28.20;58.50;;;;;;4974245;28;20463;-67
2021/10/01 09:00:23;;;;;;;2.33;1.30;;;28.10;59.10;;;;;;4974719;28;20208;-67
2021/10/01 09:02:49;;;;;;;1.40;1.30;;;28.00;59.10;;;;;;4974754;28;20423;-67
2021/10/01 09:05:15;;;;;;;1.70;1.60;;;28.10;58.70;;;;;;4974412;28;20926;-66
2021/10/01 09:07:40;;;;;;;1.40;1.30;;;28.50;57.60;;;;;;4974114;28;20236;-66
2021/10/01 09:10:12;;;;;;;1.60;1.50;;;28.40;58.10;;;;;;4956724;28;20852;-69
2021/10/01 09:12:39;;;;;;;2.27;1.50;;;28.50;58.30;;;;;;4955107;29;20180;-69
2021/10/01 09:15:08;;;;;;;2.10;1.70;;;28.60;58.30;;;;;;4954995;29;20420;-67
2021/10/01 09:17:35;;;;;;;1.93;1.40;;;29.00;57.90;;;;;;4954691;29;20400;-68
2021/10/01 09:20:01;;;;;;;1.53;1.43;;;29.50;56.10;;;;;;4954970;29;20463;-68
2021/10/01 09:22:31;;;;;;;1.53;1.43;;;29.80;56.30;;;;;;4956932;28;20416;-67
2021/10/01 09:25:14;;;;;;;1.57;1.33;;;30.00;55.50;;;;;;4974263;28;20415;-68
2021/10/01 09:27:41;;;;;;;2.03;1.27;;;30.00;55.50;;;;;;4956637;28;20503;-68
2021/10/01 09:30:09;;;;;;;1.40;1.30;;;29.90;55.50;;;;;;4974038;28;20454;-68
2021/10/01 09:32:35;;;;;;;3.63;1.43;;;29.60;55.50;;;;;;4974125;28;20427;-68
2021/10/01 09:35:11;;;;;;;1.50;1.40;;;29.40;55.80;;;;;;4973966;28;20416;-67
2021/10/01 09:37:37;;;;;;;1.47;1.37;;;29.20;57.10;;;;;;4967819;28;20403;-67
2021/10/01 09:40:05;;;;;;;1.47;1.37;;;29.40;56.50;;;;;;4954869;29;20428;-68
2021/10/01 09:42:40;;;;;;;2.60;1.40;;;29.80;55.00;;;;;;4954883;29;20173;-68
2021/10/01 09:45:09;;;;;;;1.60;1.50;;;30.10;54.60;;;;;;4954990;28;20962;-68
2021/10/01 09:47:44;;;;;;;1.27;1.27;;;30.10;54.00;;;;;;4958316;29;20724;-68
2021/10/01 09:50:14;;;;;;;1.40;1.30;;;30.00;54.80;;;;;;4958443;29;20423;-68
2021/10/01 09:53:02;;;;;;;1.73;1.50;;;29.90;55.30;;;;;;4966404;28;20424;-69
2021/10/01 09:55:36;;;;;;;1.83;1.30;;;29.90;54.60;;;;;;4978012;28;20409;-72
2021/10/01 09:58:10;;;;;;;1.43;1.33;;;30.00;54.40;;;;;;4977454;28;20458;-72
2021/10/01 10:00:44;;;;;;;1.30;1.20;;;29.90;55.00;;;;;;4977539;28;20518;-72
2021/10/01 10:03:22;;;;;;;1.83;1.57;;;29.90;55.00;;;;;;4977370;28;20408;-72
2021/10/01 10:06:01;;;;;;;1.23;1.13;;;30.00;55.10;;;;;;4959054;28;20430;-72
2021/10/01 10:08:28;;;;;;;1.23;1.10;;;30.00;54.80;;;;;;4959313;28;20427;-72
2021/10/01 10:10:56;;;;;;;0.80;0.77;;;30.20;54.50;;;;;;4956829;29;20536;-72
2021/10/01 10:13:55;;;;;;;1.03;0.97;;;30.30;53.40;;;;;;4956879;29;20515;-72
2021/10/01 10:16:29;;;;;;;1.33;1.00;;;30.20;52.60;;;;;;4934928;29;20456;-71
2021/10/01 10:19:04;;;;;;;0.80;0.80;;;30.00;53.80;;;;;;4956732;29;20508;-71
2021/10/01 10:21:31;;;;;;;1.90;1.30;;;29.90;54.60;;;;;;4953125;28;20434;-73
2021/10/01 10:23:58;;;;;;;0.90;0.90;;;30.10;54.70;;;;;;4977502;28;20565;-73
2021/10/01 10:26:25;;;;;;;1.23;1.13;;;30.10;53.70;;;;;;4977379;28;20862;-72
2021/10/01 10:28:53;;;;;;;1.83;1.73;;;30.20;54.20;;;;;;4971775;28;20448;-72
2021/10/01 10:31:24;;;;;;;1.00;0.90;;;30.00;54.20;;;;;;4957824;29;20448;-73
2021/10/01 10:33:52;;;;;;;0.80;0.80;;;30.00;53.70;;;;;;4958387;29;20412;-73
2021/10/01 10:36:35;;;;;;;0.90;0.90;;;30.00;53.00;;;;;;4957892;29;20921;-74
2021/10/01 10:39:10;;;;;;;1.10;1.10;;;29.60;52.40;;;;;;4940500;29;20441;-75
2021/10/01 10:41:47;;;;;;;2.23;1.17;;;29.20;53.60;;;;;;4957871;29;20423;-73
2021/10/01 10:44:15;;;;;;;0.93;0.93;;;28.80;54.40;;;;;;4966795;28;20419;-73
2021/10/01 10:46:46;;;;;;;1.37;1.00;;;28.60;54.70;;;;;;4976623;28;20407;-73
2021/10/01 10:49:15;;;;;;;1.07;0.80;;;28.50;54.70;;;;;;4977007;28;20431;-72
2021/10/01 10:52:14;;;;;;;1.83;1.43;;;28.50;55.00;;;;;;4976657;28;20444;-73
2021/10/01 10:54:43;;;;;;;1.23;1.10;;;28.40;54.90;;;;;;4976831;28;20416;-73
2021/10/01 10:57:18;;;;;;;0.77;0.77;;;27.90;54.60;;;;;;4976182;28;20828;-72
2021/10/01 10:59:53;;;;;;;1.00;0.90;;;27.70;56.00;;;;;;4976300;28;20427;-73
2021/10/01 11:05:24;;;;;;;1.27;1.20;;;27.20;55.90;;;;;;4925082;29;20421;-73
2021/10/01 11:07:50;;;;;;;0.80;0.80;;;26.50;57.20;;;;;;4956861;29;20723;-72
2021/10/01 11:10:32;;;;;;;1.10;1.00;;;25.90;56.40;;;;;;4956924;29;20478;-71
2021/10/01 11:13:22;;;;;;;1.87;1.77;;;25.10;57.70;;;;;;4960322;28;20201;-73
2021/10/01 11:16:13;;;;;;;1.57;1.47;;;24.40;59.00;;;;;;4959191;28;20441;-72
2021/10/01 11:18:45;;;;;;;1.57;0.90;;;23.70;61.30;;;;;;4976127;28;20443;-73
2021/10/01 11:21:35;;;;;;;1.43;1.33;;;23.20;61.50;;;;;;4976426;28;20465;-73
2021/10/01 11:24:08;;;;;;;1.17;1.10;;;22.70;64.30;;;;;;4976860;28;20824;-73
2021/10/01 11:26:47;;;;;;;1.90;1.20;;;22.40;65.00;;;;;;4958712;28;20415;-72
2021/10/01 11:29:33;;;;;;;0.93;0.90;;;22.00;66.80;;;;;;4960580;28;20803;-72
2021/10/01 11:32:02;;;;;;;0.90;0.90;;;21.90;66.90;;;;;;4956884;29;20459;-73
2021/10/01 11:34:37;;;;;;;1.00;1.00;;;21.60;69.70;;;;;;4956788;29;20404;-71
2021/10/01 11:37:03;;;;;;;3.33;1.47;;;21.50;69.00;;;;;;4956568;29;20755;-72
2021/10/01 11:39:30;;;;;;;1.10;1.07;;;21.40;67.80;;;;;;4956644;29;20403;-73
2021/10/01 11:41:57;;;;;;;1.10;0.87;;;21.20;67.50;;;;;;4956852;29;20391;-73
2021/10/01 11:44:24;;;;;;;0.70;0.70;;;21.10;70.40;;;;;;4956564;28;20501;-73
2021/10/01 11:46:50;;;;;;;0.67;0.67;;;21.00;71.80;;;;;;4956471;29;20444;-72
2021/10/01 11:49:27;;;;;;;0.73;0.73;;;21.00;70.60;;;;;;4956384;29;20420;-74
2021/10/01 11:52:13;;;;;;;1.00;0.80;;;21.00;72.30;;;;;;4956292;29;20948;-73
2021/10/01 11:54:52;;;;;;;1.03;1.03;;;21.00;69.20;;;;;;4939886;29;20511;-73
2021/10/01 11:57:18;;;;;;;0.70;0.70;;;21.00;69.60;;;;;;4957256;28;20390;-74
2021/10/01 11:59:51;;;;;;;0.90;0.90;;;20.90;70.60;;;;;;4956419;29;20395;-73
2021/10/01 12:02:29;;;;;;;0.73;0.73;;;20.90;68.30;;;;;;4956385;29;20412;-72
2021/10/01 12:04:55;;;;;;;0.60;0.50;;;20.90;67.20;;;;;;4956545;29;20404;-74
2021/10/01 12:07:20;;;;;;;0.60;0.60;;;20.90;68.40;;;;;;4938982;29;20946;-73
2021/10/01 12:10:05;;;;;;;0.70;0.70;;;21.00;67.00;;;;;;4956346;28;20707;-73
2021/10/01 12:12:31;;;;;;;0.70;0.70;;;21.00;67.90;;;;;;4965456;28;20292;-73
2021/10/01 12:14:56;;;;;;;1.27;0.70;;;21.00;67.00;;;;;;4975781;28;20449;-73
2021/10/01 12:17:22;;;;;;;0.70;0.70;;;21.00;66.90;;;;;;4974919;28;20491;-73
2021/10/01 12:19:47;;;;;;;0.80;0.80;;;21.00;67.70;;;;;;4975271;28;20188;-73
2021/10/01 12:22:16;;;;;;;0.70;0.70;;;21.00;68.60;;;;;;4956678;28;20177;-73
2021/10/01 12:24:52;;;;;;;1.30;0.80;;;21.10;68.00;;;;;;4938912;29;20177;-74
2021/10/01 12:27:30;;;;;;;1.47;0.70;;;21.10;68.30;;;;;;4956269;29;20383;-74
2021/10/01 12:29:57;;;;;;;0.77;0.77;;;21.20;67.50;;;;;;4957072;29;20454;-73
2021/10/01 12:32:23;;;;;;;0.70;0.70;;;21.20;68.70;;;;;;4939770;29;20460;-75
2021/10/01 12:34:57;;;;;;;0.97;0.83;;;21.30;66.00;;;;;;4957105;28;20407;-72
2021/10/01 12:37:37;;;;;;;0.87;0.87;;;21.30;66.60;;;;;;4936284;29;20478;-72
2021/10/01 12:40:04;;;;;;;0.87;0.83;;;21.40;66.00;;;;;;4936424;29;20446;-72
2021/10/01 12:42:35;;;;;;;1.70;1.60;;;21.40;66.70;;;;;;4937044;29;20435;-73
2021/10/01 12:45:09;;;;;;;0.60;0.60;;;21.50;68.20;;;;;;4936716;29;20417;-74
2021/10/01 12:47:37;;;;;;;0.80;0.80;;;21.60;67.70;;;;;;4936129;29;20392;-74
2021/10/01 12:50:04;;;;;;;1.00;0.90;;;21.70;66.40;;;;;;4929140;28;20429;-74
2021/10/01 12:52:32;;;;;;;0.57;0.57;;;21.70;63.90;;;;;;4975032;28;20414;-74
2021/10/01 12:55:08;;;;;;;0.67;0.67;;;21.70;64.50;;;;;;4974642;28;20404;-72
2021/10/01 12:57:38;;;;;;;0.77;0.77;;;21.80;63.00;;;;;;4957283;28;20389;-73
2021/10/01 13:00:04;;;;;;;1.00;0.90;;;21.80;63.20;;;;;;4974665;28;20431;-74
2021/10/01 13:02:50;;;;;;;0.97;0.97;;;21.80;65.20;;;;;;4974538;28;20423;-71
2021/10/01 13:05:33;;;;;;;1.60;1.23;;;21.80;64.00;;;;;;4964257;28;20173;-73
2021/10/01 13:07:59;;;;;;;0.73;0.73;;;21.80;63.80;;;;;;4955116;29;20397;-72
2021/10/01 13:11:09;;;;;;;1.73;1.50;;;21.80;64.00;;;;;;4955177;29;20801;-71
2021/10/01 13:13:34;;;;;;;1.83;0.60;;;21.90;65.00;;;;;;4951425;29;20207;-72
2021/10/01 13:16:01;;;;;;;1.00;0.93;;;21.80;64.50;;;;;;4937976;29;20383;-74
2021/10/01 13:18:37;;;;;;;0.80;0.80;;;21.80;65.30;;;;;;4954867;29;20429;-74
2021/10/01 13:21:02;;;;;;;0.73;0.73;;;21.90;64.70;;;;;;4972740;28;20428;-73
2021/10/01 13:23:34;;;;;;;0.93;0.87;;;21.90;64.60;;;;;;4974612;28;20418;-72
2021/10/01 13:26:10;;;;;;;0.50;0.50;;;22.00;64.10;;;;;;4974773;28;20658;-73
2021/10/01 13:28:36;;;;;;;1.10;1.00;;;21.90;64.50;;;;;;4956928;28;20418;-71
2021/10/01 13:31:02;;;;;;;0.70;0.70;;;21.90;65.00;;;;;;4974356;28;20513;-73
2021/10/01 13:33:28;;;;;;;0.67;0.67;;;21.90;64.70;;;;;;4974390;28;20479;-72
2021/10/01 13:35:57;;;;;;;1.50;1.00;;;21.80;64.50;;;;;;4973872;28;20227;-73
2021/10/01 13:38:29;;;;;;;0.83;0.83;;;21.90;65.70;;;;;;4973806;28;20815;-72
2021/10/01 13:40:54;;;;;;;2.00;1.43;;;21.90;66.30;;;;;;4974668;28;20394;-72
2021/10/01 13:43:20;;;;;;;2.50;1.40;;;21.90;67.50;;;;;;4974456;28;20387;-74
2021/10/01 13:45:46;;;;;;;1.37;0.80;;;21.90;67.20;;;;;;4974394;28;20172;-73
2021/10/01 13:48:13;;;;;;;1.43;1.33;;;22.00;66.10;;;;;;4974179;28;20181;-73
2021/10/01 13:50:40;;;;;;;1.23;1.13;;;22.00;66.30;;;;;;4973873;28;20219;-72
2021/10/01 13:53:05;;;;;;;1.17;1.10;;;21.90;67.00;;;;;;4974196;28;20378;-71
2021/10/01 13:55:31;;;;;;;1.30;1.20;;;22.00;67.50;;;;;;4974103;28;20394;-74
2021/10/01 13:57:57;;;;;;;1.07;0.77;;;22.00;67.00;;;;;;4973826;28;20175;-75
2021/10/01 14:00:24;;;;;;;1.33;1.30;;;22.00;66.90;;;;;;4974148;28;20196;-73
2021/10/01 14:02:50;;;;;;;1.23;1.23;;;22.00;68.00;;;;;;4971083;28;20268;-73
2021/10/01 14:05:16;;;;;;;1.20;1.10;;;22.00;66.90;;;;;;4955018;29;20408;-73
2021/10/01 14:07:45;;;;;;;1.47;1.20;;;22.00;67.70;;;;;;4954426;29;20495;-72
2021/10/01 14:10:15;;;;;;;0.73;0.70;;;21.90;67.30;;;;;;4937712;29;20468;-72
2021/10/01 14:12:47;;;;;;;1.20;1.10;;;21.90;67.40;;;;;;4954862;29;20893;-72
2021/10/01 14:15:13;;;;;;;1.40;1.30;;;22.00;68.60;;;;;;4937434;29;20388;-73
2021/10/01 14:17:39;;;;;;;1.60;1.40;;;21.90;69.30;;;;;;4937700;28;20428;-72
2021/10/01 14:20:06;;;;;;;1.73;1.37;;;21.90;69.30;;;;;;4955520;28;20428;-73
2021/10/01 14:22:32;;;;;;;1.30;1.20;;;21.90;69.50;;;;;;4974031;28;20382;-72
2021/10/01 14:24:57;;;;;;;1.27;1.17;;;21.90;69.80;;;;;;4956661;28;20462;-73
2021/10/01 14:27:23;;;;;;;1.30;1.27;;;21.90;70.20;;;;;;4973506;28;20520;-71
2021/10/01 14:29:49;;;;;;;4.67;3.33;;;21.90;71.20;;;;;;4973865;28;20184;-73
2021/10/01 14:32:15;;;;;;;1.57;1.47;;;21.90;70.80;;;;;;4974358;28;20295;-72
2021/10/01 14:34:40;;;;;;;1.43;1.17;;;21.80;71.70;;;;;;4977065;28;20176;-72
2021/10/01 14:37:06;;;;;;;1.47;1.27;;;21.80;72.10;;;;;;4977005;28;20243;-73
2021/10/01 14:39:32;;;;;;;1.60;1.50;;;21.80;72.60;;;;;;4977179;28;20199;-73